Airfield :
LOGIN :

Register | Disclaimer

   EN    FR    IT 

 










Legend :    VFR   Marginal VFR   IFR   Intensive IFR   Very Intensive IFR
Visi :
Ceiling :
>= 8 km
>= 3000ft
5 to 8 km
1000 to 3000 ft
1500m to 5 km
500 to 1000 ft
800 to 1500m
200 to 500 ft
< 800m
< 200 ft
Symbols :   Thunderstorms  Fog  Heavy snow  Heavy precipitations  Wind > 20 kt
SIGMETs :     Misc.  Thunderstorms  Icing  Turbulence  Mountain Waves  Volcanic Ashes







- Airport Elevation : 584 ft
- Download approach charts


LFPV - Villacoublay Vélizy

CURRENT METAR :
  • 251430Z AUTO 06011KT 020V080 CAVOK 17/03 Q1035 NOSIG

EXPIRED METARs :
  • 251400Z AUTO 05014KT CAVOK 16/02 Q1035
  • 251330Z AUTO 05011KT 010V090 CAVOK 16/03 Q1036 NOSIG
  • 251300Z AUTO 04012KT CAVOK 15/02 Q1036 NOSIG
  • 251230Z AUTO 07011KT CAVOK 15/03 Q1036 NOSIG
  • 251200Z AUTO 06010KT 020V110 CAVOK 15/03 Q1037 NOSIG

Expired Forecast.
No reported NOTAMs for that airfield.



MET'MAP, your aeronautical weather chart ! - Copyright ORBIFLY December 2007 - Disclaimer

ORBIFLY MET'MAP TEAM :

Programming & Development : Alexandra Zaïnal
Concept & Development : Baudouin d'Aumeries
Co-Development & Prog : Marc-Olivier Méhu
Technical & hardware support : Manuel Goepfert

Contact : metmap@orbifly.com




SOURCES & CREDITS :

   NOAA